createdAt,value
2019-04-29T00:00:27.602Z,1020.07
2019-04-29T00:01:27.547Z,1020.03
2019-04-29T00:02:27.414Z,1020.04
2019-04-29T00:03:27.349Z,1020.06
2019-04-29T00:04:27.362Z,1020.08
2019-04-29T00:05:27.180Z,1020.09
2019-04-29T00:06:27.173Z,1020.07
2019-04-29T00:07:26.992Z,1020.05
2019-04-29T00:08:26.921Z,1020.03
2019-04-29T00:09:26.822Z,1020.06
2019-04-29T00:10:26.750Z,1020.06
2019-04-29T00:11:26.692Z,1020.09
2019-04-29T00:12:26.682Z,1020.10
2019-04-29T00:13:26.566Z,1020.08
2019-04-29T00:14:32.963Z,1020.15
2019-04-29T00:15:26.547Z,1020.14
2019-04-29T00:16:26.269Z,1020.16
2019-04-29T00:17:26.276Z,1020.15
2019-04-29T00:18:26.052Z,1020.18
2019-04-29T00:19:25.965Z,1020.13
2019-04-29T00:20:25.973Z,1020.15
2019-04-29T00:21:25.792Z,1020.18
2019-04-29T00:22:25.746Z,1020.17
2019-04-29T00:23:25.624Z,1020.18
2019-04-29T00:24:25.563Z,1020.19
2019-04-29T00:25:25.466Z,1020.17
2019-04-29T00:26:25.471Z,1020.16
2019-04-29T00:27:25.279Z,1020.21
2019-04-29T00:28:25.279Z,1020.18
2019-04-29T00:29:25.107Z,1020.23
2019-04-29T00:30:25.036Z,1020.21
2019-04-29T00:31:26.015Z,1020.24
2019-04-29T00:32:24.855Z,1020.23
2019-04-29T00:33:24.773Z,1020.22
2019-04-29T00:34:24.705Z,1020.23
2019-04-29T00:35:24.619Z,1020.19
2019-04-29T00:36:24.615Z,1020.22
2019-04-29T00:37:24.426Z,1020.26
2019-04-29T00:38:24.432Z,1020.28
2019-04-29T00:39:24.258Z,1020.28
2019-04-29T00:40:24.184Z,1020.30
2019-04-29T00:41:24.139Z,1020.30
2019-04-29T00:42:23.996Z,1020.32
2019-04-29T00:43:23.917Z,1020.25
2019-04-29T00:44:23.851Z,1020.29
2019-04-29T00:45:23.757Z,1020.29
2019-04-29T00:46:23.772Z,1020.26
2019-04-29T00:47:23.571Z,1020.31
2019-04-29T00:48:24.594Z,1020.31
2019-04-29T00:49:23.396Z,1020.32
2019-04-29T00:50:23.325Z,1020.33
2019-04-29T00:51:23.226Z,1020.32
2019-04-29T00:52:23.194Z,1020.31
2019-04-29T00:53:23.058Z,1020.32
2019-04-29T00:54:22.972Z,1020.32
2019-04-29T00:55:22.897Z,1020.29
2019-04-29T00:56:22.803Z,1020.30
2019-04-29T00:57:22.711Z,1020.31
2019-04-29T00:58:22.734Z,1020.30
2019-04-29T00:59:22.545Z,1020.29
2019-04-29T01:00:22.489Z,1020.32
2019-04-29T01:01:22.438Z,1020.30
2019-04-29T01:02:22.283Z,1020.32
2019-04-29T01:03:22.249Z,1020.30
2019-04-29T01:04:22.114Z,1020.32
2019-04-29T01:05:22.034Z,1020.29
2019-04-29T01:06:21.986Z,1020.30
2019-04-29T01:07:21.857Z,1020.33
2019-04-29T01:08:21.769Z,1020.32
2019-04-29T01:09:21.772Z,1020.34
2019-04-29T01:10:21.602Z,1020.33
2019-04-29T01:11:21.610Z,1020.28
2019-04-29T01:12:21.432Z,1020.33
2019-04-29T01:13:21.391Z,1020.29
2019-04-29T01:14:21.260Z,1020.31
2019-04-29T01:15:21.197Z,1020.29
2019-04-29T01:16:21.105Z,1020.31
2019-04-29T01:17:21.109Z,1020.28
2019-04-29T01:18:20.911Z,1020.26
2019-04-29T01:19:20.920Z,1020.23
2019-04-29T01:20:20.744Z,1020.27
2019-04-29T01:21:20.759Z,1020.25
2019-04-29T01:22:20.570Z,1020.27
2019-04-29T01:23:29.458Z,1020.27
2019-04-29T01:24:20.411Z,1020.29
2019-04-29T01:25:20.321Z,1020.29
2019-04-29T01:26:20.281Z,1020.32
2019-04-29T01:27:20.139Z,1020.26
2019-04-29T01:28:20.166Z,1020.27
2019-04-29T01:29:19.968Z,1020.30
2019-04-29T01:30:19.887Z,1020.28
2019-04-29T01:31:19.917Z,1020.27
2019-04-29T01:32:19.713Z,1020.24
2019-04-29T01:33:19.636Z,1020.33
2019-04-29T01:34:19.590Z,1020.33
2019-04-29T01:35:19.877Z,1020.35
2019-04-29T01:36:19.432Z,1020.34
2019-04-29T01:37:19.281Z,1020.33
2019-04-29T01:38:19.313Z,1020.38
2019-04-29T01:39:19.117Z,1020.39
2019-04-29T01:40:19.026Z,1020.37
2019-04-29T01:41:19.983Z,1020.38
2019-04-29T01:42:18.852Z,1020.43
2019-04-29T01:43:18.764Z,1020.46
2019-04-29T01:44:18.747Z,1020.44
2019-04-29T01:45:18.596Z,1020.44
2019-04-29T01:46:18.524Z,1020.46
2019-04-29T01:47:18.455Z,1020.49
2019-04-29T01:48:18.335Z,1020.48
2019-04-29T01:49:18.254Z,1020.52
2019-04-29T01:50:18.279Z,1020.48
2019-04-29T01:51:18.092Z,1020.52
2019-04-29T01:52:18.080Z,1020.45
2019-04-29T01:53:17.913Z,1020.46
2019-04-29T01:54:17.831Z,1020.49
2019-04-29T01:55:17.749Z,1020.46
2019-04-29T01:56:17.660Z,1020.48
2019-04-29T01:57:17.568Z,1020.50
2019-04-29T01:58:17.504Z,1020.50
2019-04-29T01:59:17.474Z,1020.49
2019-04-29T02:00:17.309Z,1020.51
2019-04-29T02:01:17.252Z,1020.49
2019-04-29T02:02:17.136Z,1020.49
2019-04-29T02:03:17.128Z,1020.50
2019-04-29T02:04:16.964Z,1020.54
2019-04-29T02:05:16.907Z,1020.55
2019-04-29T02:06:16.872Z,1020.54
2019-04-29T02:07:16.708Z,1020.56
2019-04-29T02:08:16.618Z,1020.57
2019-04-29T02:09:16.555Z,1020.53
2019-04-29T02:10:16.444Z,1020.58
2019-04-29T02:11:16.377Z,1020.58
2019-04-29T02:12:16.372Z,1020.61
2019-04-29T02:13:16.187Z,1020.59
2019-04-29T02:14:16.103Z,1020.60
2019-04-29T02:15:16.086Z,1020.60
2019-04-29T02:16:15.945Z,1020.60
2019-04-29T02:17:15.847Z,1020.60
2019-04-29T02:18:15.802Z,1020.55
2019-04-29T02:19:15.673Z,1020.58
2019-04-29T02:20:15.588Z,1020.57
2019-04-29T02:21:15.861Z,1020.59
2019-04-29T02:22:15.418Z,1020.55
2019-04-29T02:23:15.325Z,1020.55
2019-04-29T02:24:15.327Z,1020.54
2019-04-29T02:25:15.159Z,1020.54
2019-04-29T02:26:15.071Z,1020.57
2019-04-29T02:27:15.027Z,1020.57
2019-04-29T02:28:14.901Z,1020.56
2019-04-29T02:29:14.814Z,1020.55
2019-04-29T02:30:14.761Z,1020.57
2019-04-29T02:31:14.646Z,1020.55
2019-04-29T02:32:14.607Z,1020.57
2019-04-29T02:33:14.471Z,1020.60
2019-04-29T02:34:14.483Z,1020.57
2019-04-29T02:35:14.299Z,1020.63
2019-04-29T02:36:14.292Z,1020.58
2019-04-29T02:37:14.143Z,1020.59
2019-04-29T02:38:14.099Z,1020.58
2019-04-29T02:39:13.953Z,1020.58
2019-04-29T02:40:13.908Z,1020.61
2019-04-29T02:41:13.790Z,1020.62
2019-04-29T02:42:13.770Z,1020.67
2019-04-29T02:43:13.609Z,1020.65
2019-04-29T02:44:13.628Z,1020.66
2019-04-29T02:45:13.434Z,1020.68
2019-04-29T02:46:13.352Z,1020.67
2019-04-29T02:47:13.371Z,1020.68
2019-04-29T02:48:13.175Z,1020.69
2019-04-29T02:49:13.098Z,1020.67
2019-04-29T02:50:14.075Z,1020.68
2019-04-29T02:51:12.923Z,1020.64
2019-04-29T02:52:12.893Z,1020.64
2019-04-29T02:53:12.747Z,1020.64
2019-04-29T02:54:12.772Z,1020.65
2019-04-29T02:55:12.582Z,1020.59
2019-04-29T02:56:14.529Z,1020.62
2019-04-29T02:57:12.414Z,1020.59
2019-04-29T02:58:12.791Z,1020.62
2019-04-29T02:59:12.231Z,1020.60
2019-04-29T03:00:12.196Z,1020.60
2019-04-29T03:01:12.057Z,1020.59
2019-04-29T03:02:15.523Z,1020.64
2019-04-29T03:03:11.886Z,1020.59
2019-04-29T03:04:11.814Z,1020.57
2019-04-29T03:05:11.717Z,1020.60
2019-04-29T03:06:11.726Z,1020.56
2019-04-29T03:07:11.553Z,1020.60
2019-04-29T03:08:13.481Z,1020.58
2019-04-29T03:09:11.369Z,1020.63
2019-04-29T03:10:11.349Z,1020.57
2019-04-29T03:11:11.194Z,1020.57
2019-04-29T03:12:11.192Z,1020.59
2019-04-29T03:13:11.028Z,1020.60
2019-04-29T03:14:10.963Z,1020.59
2019-04-29T03:15:10.853Z,1020.54
2019-04-29T03:16:10.873Z,1020.54
2019-04-29T03:17:10.700Z,1020.54
2019-04-29T03:18:10.684Z,1020.52
2019-04-29T03:19:10.506Z,1020.52
2019-04-29T03:20:10.494Z,1020.50
2019-04-29T03:21:10.330Z,1020.52
2019-04-29T03:22:10.336Z,1020.54
2019-04-29T03:23:10.160Z,1020.51
2019-04-29T03:24:10.112Z,1020.54
2019-04-29T03:25:10.008Z,1020.54
2019-04-29T03:26:09.900Z,1020.52
2019-04-29T03:27:09.860Z,1020.59
2019-04-29T03:28:09.728Z,1020.56
2019-04-29T03:29:09.640Z,1020.62
2019-04-29T03:30:09.831Z,1020.64
2019-04-29T03:31:09.474Z,1020.61
2019-04-29T03:32:09.398Z,1020.62
2019-04-29T03:33:09.354Z,1020.63
2019-04-29T03:34:09.211Z,1020.69
2019-04-29T03:35:09.161Z,1020.66
2019-04-29T03:36:09.068Z,1020.66
2019-04-29T03:37:08.969Z,1020.71
2019-04-29T03:38:08.867Z,1020.71
2019-04-29T03:39:08.883Z,1020.71
2019-04-29T03:40:08.705Z,1020.69
2019-04-29T03:41:08.616Z,1020.72
2019-04-29T03:42:09.560Z,1020.71
2019-04-29T03:43:08.440Z,1020.70
2019-04-29T03:44:08.406Z,1020.74
2019-04-29T03:45:08.262Z,1020.76
2019-04-29T03:46:08.181Z,1020.75
2019-04-29T03:47:08.113Z,1020.75
2019-04-29T03:48:08.023Z,1020.77
2019-04-29T03:49:07.920Z,1020.77
2019-04-29T03:50:07.963Z,1020.81
2019-04-29T03:51:07.740Z,1020.80
2019-04-29T03:52:07.748Z,1020.88
2019-04-29T03:53:07.586Z,1020.82
2019-04-29T03:54:09.502Z,1020.83
2019-04-29T03:55:07.405Z,1020.89
2019-04-29T03:56:07.315Z,1020.85
2019-04-29T03:57:07.230Z,1020.85
2019-04-29T03:58:07.239Z,1020.84
2019-04-29T03:59:07.057Z,1020.87
2019-04-29T04:00:06.967Z,1020.89
2019-04-29T04:01:06.985Z,1020.91
2019-04-29T04:02:06.800Z,1020.87
2019-04-29T04:03:06.832Z,1020.95
2019-04-29T04:04:06.622Z,1020.91
2019-04-29T04:05:06.619Z,1020.89
2019-04-29T04:06:06.453Z,1020.91
2019-04-29T04:07:06.415Z,1020.94
2019-04-29T04:08:06.293Z,1020.93
2019-04-29T04:09:06.686Z,1020.91
2019-04-29T04:10:06.110Z,1020.91
2019-04-29T04:11:06.036Z,1020.89
2019-04-29T04:12:05.938Z,1020.89
2019-04-29T04:13:05.881Z,1020.89
2019-04-29T04:14:05.786Z,1020.89
2019-04-29T04:15:05.698Z,1020.91
2019-04-29T04:16:05.615Z,1020.93
2019-04-29T04:17:05.500Z,1020.94
2019-04-29T04:18:05.434Z,1020.97
2019-04-29T04:19:05.380Z,1020.96
2019-04-29T04:20:05.243Z,1021.01
2019-04-29T04:21:05.156Z,1021.06
2019-04-29T04:22:05.093Z,1021.04
2019-04-29T04:23:04.995Z,1021.03
2019-04-29T04:24:04.897Z,1021.05
2019-04-29T04:25:04.903Z,1021.04
2019-04-29T04:26:04.726Z,1021.04
2019-04-29T04:27:04.713Z,1021.05
2019-04-29T04:28:04.566Z,1021.07
2019-04-29T04:29:11.487Z,1021.10
2019-04-29T04:30:04.382Z,1021.07
2019-04-29T04:31:07.025Z,1021.06
2019-04-29T04:32:04.233Z,1021.06
2019-04-29T04:33:04.181Z,1021.09
2019-04-29T04:34:04.038Z,1021.12
2019-04-29T04:35:04.057Z,1021.15
2019-04-29T04:36:03.864Z,1021.18
2019-04-29T04:37:03.775Z,1021.22
2019-04-29T04:38:03.806Z,1021.25
2019-04-29T04:39:03.609Z,1021.23
2019-04-29T04:40:03.529Z,1021.22
2019-04-29T04:41:03.502Z,1021.27
2019-04-29T04:42:03.358Z,1021.25
2019-04-29T04:43:03.320Z,1021.25
2019-04-29T04:44:03.178Z,1021.26
2019-04-29T04:45:03.195Z,1021.24
2019-04-29T04:46:03.008Z,1021.25
2019-04-29T04:47:03.005Z,1021.22
2019-04-29T04:48:02.854Z,1021.25
2019-04-29T04:49:02.817Z,1021.22
2019-04-29T04:50:02.664Z,1021.23
2019-04-29T04:51:02.578Z,1021.23
2019-04-29T04:52:02.494Z,1021.23
2019-04-29T04:53:02.478Z,1021.17
2019-04-29T04:54:02.332Z,1021.20
2019-04-29T04:55:02.236Z,1021.21
2019-04-29T04:56:02.165Z,1021.23
2019-04-29T04:57:02.163Z,1021.26
2019-04-29T04:58:02.007Z,1021.26
2019-04-29T04:59:01.897Z,1021.30
2019-04-29T05:00:01.895Z,1021.32
2019-04-29T05:01:01.722Z,1021.34
2019-04-29T05:02:01.636Z,1021.35
2019-04-29T05:03:01.614Z,1021.36
2019-04-29T05:04:01.469Z,1021.37
2019-04-29T05:05:01.379Z,1021.42
2019-04-29T05:06:01.362Z,1021.44
2019-04-29T05:07:01.223Z,1021.42
2019-04-29T05:08:01.286Z,1021.44
2019-04-29T05:09:01.038Z,1021.44
2019-04-29T05:10:01.065Z,1021.47
2019-04-29T05:11:00.868Z,1021.46
2019-04-29T05:12:00.873Z,1021.44
2019-04-29T05:13:00.717Z,1021.43
2019-04-29T05:14:00.678Z,1021.45
2019-04-29T05:15:00.527Z,1021.43
2019-04-29T05:16:00.440Z,1021.46
2019-04-29T05:17:00.493Z,1021.46
2019-04-29T05:18:00.293Z,1021.50
2019-04-29T05:19:00.189Z,1021.49
2019-04-29T05:20:00.111Z,1021.53
2019-04-29T05:21:00.018Z,1021.52
2019-04-29T05:21:59.940Z,1021.57
2019-04-29T05:22:59.953Z,1021.55
2019-04-29T05:23:59.764Z,1021.56
2019-04-29T05:24:59.692Z,1021.58
2019-04-29T05:25:59.593Z,1021.65
2019-04-29T05:26:59.502Z,1021.73
2019-04-29T05:27:59.430Z,1021.64
2019-04-29T05:28:59.377Z,1021.67
2019-04-29T05:29:59.251Z,1021.66
2019-04-29T05:30:59.166Z,1021.71
2019-04-29T05:31:59.091Z,1021.78
2019-04-29T05:32:59.164Z,1021.84
2019-04-29T05:33:58.927Z,1021.84
2019-04-29T05:34:58.825Z,1021.85
2019-04-29T05:36:01.838Z,1021.89
2019-04-29T05:36:58.683Z,1021.91
2019-04-29T05:37:58.648Z,1021.94
2019-04-29T05:38:58.631Z,1021.97
2019-04-29T05:39:58.407Z,1021.96
2019-04-29T05:40:58.339Z,1022.00
2019-04-29T05:41:58.408Z,1021.98
2019-04-29T05:42:58.160Z,1022.04
2019-04-29T05:43:58.146Z,1022.07
2019-04-29T05:44:58.020Z,1022.09
2019-04-29T05:45:57.905Z,1022.08
2019-04-29T05:46:57.820Z,1022.07
2019-04-29T05:47:58.665Z,1022.04
2019-04-29T05:48:57.675Z,1022.06
2019-04-29T05:49:57.638Z,1022.07
2019-04-29T05:50:57.496Z,1022.13
2019-04-29T05:52:01.505Z,1022.12
2019-04-29T05:52:57.451Z,1022.13
2019-04-29T05:53:57.259Z,1022.14
2019-04-29T05:54:57.157Z,1022.21
2019-04-29T05:55:57.270Z,1022.19
2019-04-29T05:56:57.000Z,1022.25
2019-04-29T05:58:02.829Z,1022.23
2019-04-29T05:58:56.912Z,1022.23
2019-04-29T05:59:56.750Z,1022.22
2019-04-29T06:00:56.675Z,1022.25
2019-04-29T06:01:56.696Z,1022.29
2019-04-29T06:02:56.510Z,1022.32
2019-04-29T06:03:56.441Z,1022.32
2019-04-29T06:04:56.507Z,1022.33
2019-04-29T06:05:56.270Z,1022.35
2019-04-29T06:06:56.181Z,1022.36
2019-04-29T06:08:00.452Z,1022.42
2019-04-29T06:08:56.029Z,1022.41
2019-04-29T06:09:55.939Z,1022.30
2019-04-29T06:10:55.936Z,1022.44
2019-04-29T06:11:55.779Z,1022.52
2019-04-29T06:12:55.696Z,1022.51
2019-04-29T06:13:55.785Z,1022.53
2019-04-29T06:14:55.591Z,1022.56
2019-04-29T06:15:55.457Z,1022.52
2019-04-29T06:16:57.473Z,1022.61
2019-04-29T06:17:55.293Z,1022.72
2019-04-29T06:19:00.308Z,1022.67
2019-04-29T06:19:55.126Z,1022.66
2019-04-29T06:21:08.406Z,1022.69
2019-04-29T06:21:55.019Z,1022.69
2019-04-29T06:22:55.071Z,1022.72
2019-04-29T06:23:59.226Z,1022.70
2019-04-29T06:24:54.904Z,1022.70
2019-04-29T06:25:54.648Z,1022.77
2019-04-29T06:26:54.608Z,1022.79
2019-04-29T06:27:54.498Z,1022.79
2019-04-29T06:28:54.449Z,1022.88
2019-04-29T06:29:54.322Z,1022.86
2019-04-29T06:30:54.242Z,1022.85
2019-04-29T06:31:54.233Z,1022.85
2019-04-29T06:32:54.082Z,1022.83
2019-04-29T06:33:54.028Z,1022.84
2019-04-29T06:34:54.049Z,1022.85
2019-04-29T06:35:56.947Z,1022.88
2019-04-29T06:36:53.768Z,1022.92
2019-04-29T06:37:53.861Z,1022.93
2019-04-29T06:38:54.413Z,1022.99
2019-04-29T06:39:53.669Z,1022.98
2019-04-29T06:40:53.446Z,1022.93
2019-04-29T06:41:53.365Z,1022.77
2019-04-29T06:42:55.115Z,1022.96
2019-04-29T06:43:56.011Z,1022.96
2019-04-29T06:44:53.150Z,1023.12
2019-04-29T06:45:53.095Z,1023.12
2019-04-29T06:46:54.608Z,1023.18
2019-04-29T06:47:52.889Z,1023.14
2019-04-29T06:48:52.910Z,1023.20
2019-04-29T06:49:52.802Z,1023.19
2019-04-29T06:50:52.667Z,1023.15
2019-04-29T06:51:52.586Z,1023.12
2019-04-29T06:52:52.494Z,1023.25
2019-04-29T06:53:52.540Z,1023.26
2019-04-29T06:54:52.351Z,1023.30
2019-04-29T06:55:52.260Z,1023.29
2019-04-29T06:56:52.171Z,1023.31
2019-04-29T06:57:52.095Z,1023.30
2019-04-29T06:58:52.156Z,1023.32
2019-04-29T06:59:54.641Z,1023.32
2019-04-29T07:00:55.971Z,1023.34
2019-04-29T07:01:51.971Z,1023.34
2019-04-29T07:02:51.756Z,1023.34
2019-04-29T07:03:52.031Z,1023.31
2019-04-29T07:04:51.563Z,1023.32
2019-04-29T07:05:51.741Z,1023.26
2019-04-29T07:06:57.556Z,1023.31
2019-04-29T07:07:51.307Z,1023.23
2019-04-29T07:08:51.412Z,1023.25
2019-04-29T07:09:51.160Z,1023.22
2019-04-29T07:10:51.074Z,1023.14
2019-04-29T07:11:51.013Z,1023.33
2019-04-29T07:12:50.913Z,1023.38
2019-04-29T07:13:53.424Z,1023.48
2019-04-29T07:14:50.873Z,1023.54
2019-04-29T07:15:50.683Z,1023.55
2019-04-29T07:16:51.001Z,1023.62
2019-04-29T07:17:50.541Z,1023.65
2019-04-29T07:18:53.558Z,1023.30
2019-04-29T07:19:50.479Z,1023.60
2019-04-29T07:20:50.286Z,1023.76
2019-04-29T07:21:53.298Z,1023.89
2019-04-29T07:22:50.164Z,1023.85
2019-04-29T07:23:50.055Z,1023.96
2019-04-29T07:24:49.992Z,1024.02
2019-04-29T07:25:49.906Z,1024.05
2019-04-29T07:26:50.511Z,1024.03
2019-04-29T07:27:49.743Z,1024.08
2019-04-29T07:28:53.285Z,1024.12
2019-04-29T07:29:49.600Z,1024.26
2019-04-29T07:31:01.174Z,1024.43
2019-04-29T07:31:49.436Z,1024.58
2019-04-29T07:32:49.356Z,1024.74
2019-04-29T07:33:49.332Z,1024.93
2019-04-29T07:34:52.527Z,1025.05
2019-04-29T07:35:49.669Z,1025.58
2019-04-29T07:36:49.154Z,1026.17
2019-04-29T07:37:48.978Z,1026.78
2019-04-29T07:38:51.268Z,1027.69
2019-04-29T07:39:48.981Z,1028.62
2019-04-29T07:40:48.745Z,1029.60
2019-04-29T07:41:49.479Z,1030.70
2019-04-29T07:42:48.772Z,1031.90
2019-04-29T07:43:48.524Z,1032.23
2019-04-29T07:44:48.832Z,1032.41
2019-04-29T07:45:48.579Z,1034.46
2019-04-29T07:46:56.749Z,1034.72
2019-04-29T07:47:56.312Z,1034.89
2019-04-29T07:49:00.728Z,1034.87
2019-04-29T07:49:51.415Z,1034.69
2019-04-29T07:50:48.004Z,1034.64
2019-04-29T07:51:47.917Z,1036.11
2019-04-29T07:52:49.951Z,1037.58
2019-04-29T07:53:47.812Z,1038.99
2019-04-29T07:54:52.167Z,1040.23
2019-04-29T07:55:47.664Z,1042.62
2019-04-29T07:56:47.528Z,1043.98
2019-04-29T07:57:47.811Z,1043.98
2019-04-29T07:58:48.667Z,1041.68
2019-04-29T07:59:47.302Z,1036.49
2019-04-29T08:00:48.811Z,1033.42
2019-04-29T08:01:47.160Z,1035.37
2019-04-29T08:02:47.079Z,1040.88
2019-04-29T08:03:47.172Z,1046.58
2019-04-29T08:04:46.929Z,1046.52
2019-04-29T08:05:47.032Z,1046.97
2019-04-29T08:06:46.782Z,1047.21
2019-04-29T08:07:46.883Z,1045.00
2019-04-29T08:08:54.706Z,1045.15
2019-04-29T08:09:46.693Z,1045.70
2019-04-29T08:10:55.949Z,1044.84
2019-04-29T08:11:46.408Z,1045.47
2019-04-29T08:12:46.506Z,1045.55
2019-04-29T08:13:46.264Z,1045.58
2019-04-29T08:14:46.187Z,1045.70
2019-04-29T08:15:46.149Z,1046.69
2019-04-29T08:16:46.039Z,1047.59
2019-04-29T08:17:45.967Z,1047.93
2019-04-29T08:18:49.566Z,1048.15
2019-04-29T08:19:45.821Z,1048.19
2019-04-29T08:20:45.771Z,1040.77
2019-04-29T08:21:49.591Z,1040.39
2019-04-29T08:22:45.598Z,1038.33
2019-04-29T08:23:45.536Z,1041.72
2019-04-29T08:24:46.038Z,1046.43
2019-04-29T08:25:45.405Z,1047.41
2019-04-29T08:26:47.678Z,1045.76
2019-04-29T08:27:45.232Z,1045.60
2019-04-29T08:28:45.163Z,1045.35
2019-04-29T08:29:45.183Z,1046.16
2019-04-29T08:30:45.761Z,1045.33
2019-04-29T08:31:44.943Z,1044.71
2019-04-29T08:32:44.877Z,1042.86
2019-04-29T08:33:46.738Z,1042.51
2019-04-29T08:34:44.731Z,1043.44
2019-04-29T08:35:46.753Z,1044.04
2019-04-29T08:36:44.586Z,1042.90
2019-04-29T08:37:44.506Z,1042.04
2019-04-29T08:38:44.442Z,1042.05
2019-04-29T08:39:44.360Z,1041.74
2019-04-29T08:40:45.072Z,1040.50
2019-04-29T08:41:44.225Z,1039.80
2019-04-29T08:42:46.821Z,1039.06
2019-04-29T08:43:44.076Z,1037.48
2019-04-29T08:44:44.008Z,1036.45
2019-04-29T08:45:43.977Z,1036.16
2019-04-29T08:46:49.976Z,1037.66
2019-04-29T08:47:43.803Z,1037.79
2019-04-29T08:48:45.867Z,1034.49
2019-04-29T08:49:43.646Z,1034.39
2019-04-29T08:50:43.718Z,1033.41
2019-04-29T08:51:43.505Z,1033.50
2019-04-29T08:52:43.431Z,1033.68
2019-04-29T08:53:43.497Z,1033.16
2019-04-29T08:54:43.284Z,1032.90
2019-04-29T08:55:43.229Z,1031.87
2019-04-29T08:57:01.757Z,1030.57
2019-04-29T08:57:43.070Z,1030.45
2019-04-29T08:58:44.409Z,1030.54
2019-04-29T08:59:42.933Z,1030.30
2019-04-29T09:00:42.895Z,1030.54
2019-04-29T09:01:42.784Z,1029.62
2019-04-29T09:02:47.345Z,1028.91
2019-04-29T09:03:42.644Z,1028.42
2019-04-29T09:04:53.364Z,1027.31
2019-04-29T09:05:46.136Z,1026.45
2019-04-29T09:06:42.451Z,1025.75
2019-04-29T09:07:42.362Z,1025.40
2019-04-29T09:08:54.146Z,1025.08
2019-04-29T09:09:42.225Z,1024.76
2019-04-29T09:10:42.154Z,1024.51
2019-04-29T09:11:43.644Z,1024.30
2019-04-29T09:12:42.192Z,1024.26
2019-04-29T09:13:41.935Z,1024.21
2019-04-29T09:14:41.905Z,1024.07
2019-04-29T09:15:41.798Z,1023.83
2019-04-29T09:16:41.755Z,1023.75
2019-04-29T09:17:41.700Z,1023.70
2019-04-29T09:18:41.603Z,1023.31
2019-04-29T09:19:41.620Z,1023.21
2019-04-29T09:20:41.448Z,1023.12
2019-04-29T09:21:41.388Z,1023.51
2019-04-29T09:22:41.438Z,1023.97
2019-04-29T09:23:41.233Z,1023.84
2019-04-29T09:24:43.598Z,1023.31
2019-04-29T09:25:41.103Z,1022.90
2019-04-29T09:26:41.038Z,1022.81
2019-04-29T09:27:45.058Z,1022.71
2019-04-29T09:28:40.885Z,1022.67
2019-04-29T09:29:40.808Z,1022.58
2019-04-29T09:30:40.739Z,1022.64
2019-04-29T09:31:40.680Z,1022.75
2019-04-29T09:32:40.585Z,1023.07
2019-04-29T09:33:44.120Z,1023.48
2019-04-29T09:34:40.442Z,1023.65
2019-04-29T09:35:40.635Z,1023.47
2019-04-29T09:36:43.991Z,1023.18
2019-04-29T09:37:40.212Z,1022.97
2019-04-29T09:38:40.135Z,1022.69
2019-04-29T09:39:43.444Z,1022.78
2019-04-29T09:40:39.985Z,1023.17
2019-04-29T09:41:39.926Z,1023.33
2019-04-29T09:42:39.929Z,1023.52
2019-04-29T09:43:39.768Z,1023.73
2019-04-29T09:44:42.851Z,1023.63
2019-04-29T09:45:39.626Z,1023.28
2019-04-29T09:46:39.560Z,1023.29
2019-04-29T09:47:39.470Z,1023.25
2019-04-29T09:48:39.561Z,1023.24
2019-04-29T09:49:39.322Z,1023.11
2019-04-29T09:50:40.874Z,1023.10
2019-04-29T09:51:39.197Z,1022.76
2019-04-29T09:52:39.109Z,1023.24
2019-04-29T09:53:39.035Z,1023.11
2019-04-29T09:54:38.959Z,1022.80
2019-04-29T09:55:40.113Z,1022.98
2019-04-29T09:56:38.838Z,1023.34
2019-04-29T09:57:38.736Z,1022.66
2019-04-29T09:58:38.666Z,1022.63
2019-04-29T09:59:38.640Z,1022.57
2019-04-29T10:00:40.801Z,1022.57
2019-04-29T10:01:38.467Z,1022.69
2019-04-29T10:02:38.440Z,1023.45
2019-04-29T10:03:38.292Z,1023.49
2019-04-29T10:04:38.233Z,1023.45
2019-04-29T10:05:38.144Z,1023.55
2019-04-29T10:06:38.278Z,1023.71
2019-04-29T10:07:37.995Z,1023.70
2019-04-29T10:08:38.053Z,1023.73
2019-04-29T10:09:37.842Z,1023.61
2019-04-29T10:10:37.782Z,1022.61
2019-04-29T10:11:37.709Z,1022.61
2019-04-29T10:12:37.625Z,1023.34
2019-04-29T10:13:37.550Z,1023.71
2019-04-29T10:14:37.508Z,1023.67
2019-04-29T10:15:37.400Z,1023.68
2019-04-29T10:16:37.526Z,1023.75
2019-04-29T10:17:37.252Z,1023.83
2019-04-29T10:18:37.182Z,1023.41
2019-04-29T10:19:37.120Z,1023.88
2019-04-29T10:20:37.035Z,1022.78
2019-04-29T10:21:37.003Z,1022.77
2019-04-29T10:22:36.918Z,1022.61
2019-04-29T10:23:36.819Z,1022.45
2019-04-29T10:24:36.755Z,1022.33
2019-04-29T10:25:36.734Z,1022.19
2019-04-29T10:26:36.670Z,1022.15
2019-04-29T10:27:36.544Z,1022.09
2019-04-29T10:28:36.461Z,1022.12
2019-04-29T10:29:36.379Z,1022.07
2019-04-29T10:30:36.314Z,1022.63
2019-04-29T10:31:36.225Z,1023.94
2019-04-29T10:32:37.878Z,1023.98
2019-04-29T10:33:36.083Z,1024.11
2019-04-29T10:34:36.001Z,1024.18
2019-04-29T10:35:35.925Z,1024.15
2019-04-29T10:36:35.859Z,1024.14
2019-04-29T10:37:35.792Z,1024.29
2019-04-29T10:38:35.703Z,1024.32
2019-04-29T10:39:35.625Z,1024.40
2019-04-29T10:40:35.568Z,1024.42
2019-04-29T10:41:36.076Z,1024.42
2019-04-29T10:42:35.430Z,1022.28
2019-04-29T10:43:35.846Z,1022.23
2019-04-29T10:44:37.455Z,1022.26
2019-04-29T10:45:35.188Z,1022.26
2019-04-29T10:46:35.130Z,1022.08
2019-04-29T10:47:35.062Z,1022.06
2019-04-29T10:48:34.977Z,1021.97
2019-04-29T10:49:39.128Z,1021.91
2019-04-29T10:50:34.835Z,1021.92
2019-04-29T10:51:34.749Z,1021.90
2019-04-29T10:52:38.683Z,1022.06
2019-04-29T10:53:34.666Z,1022.05
2019-04-29T10:54:34.523Z,1022.85
2019-04-29T10:55:34.475Z,1023.65
2019-04-29T10:56:35.303Z,1023.70
2019-04-29T10:57:34.330Z,1023.67
2019-04-29T10:58:35.670Z,1023.68
2019-04-29T10:59:36.070Z,1023.73
2019-04-29T11:00:34.070Z,1023.60
2019-04-29T11:01:34.108Z,1023.69
2019-04-29T11:02:33.954Z,1023.70
2019-04-29T11:03:33.866Z,1023.85
2019-04-29T11:04:36.337Z,1023.87
2019-04-29T11:05:33.703Z,1023.67
2019-04-29T11:06:35.848Z,1022.05
2019-04-29T11:07:33.766Z,1023.49
2019-04-29T11:08:33.742Z,1023.34
2019-04-29T11:09:33.407Z,1021.97
2019-04-29T11:10:33.359Z,1021.95
2019-04-29T11:11:36.224Z,1021.96
2019-04-29T11:12:33.203Z,1021.95
2019-04-29T11:13:33.126Z,1022.12
2019-04-29T11:14:37.252Z,1022.11
2019-04-29T11:15:33.179Z,1022.06
2019-04-29T11:16:45.954Z,1022.09
2019-04-29T11:17:35.064Z,1023.13
2019-04-29T11:18:32.788Z,1022.94
2019-04-29T11:19:35.076Z,1022.90
2019-04-29T11:20:32.796Z,1022.92
2019-04-29T11:21:32.531Z,1022.86
2019-04-29T11:22:33.946Z,1022.96
2019-04-29T11:23:32.410Z,1022.84
2019-04-29T11:24:32.530Z,1022.88
2019-04-29T11:25:32.492Z,1022.96
2019-04-29T11:26:32.168Z,1022.95
2019-04-29T11:27:32.106Z,1023.02
2019-04-29T11:28:32.238Z,1022.62
2019-04-29T11:29:31.948Z,1022.92
2019-04-29T11:30:39.299Z,1023.03
2019-04-29T11:31:31.917Z,1022.96
2019-04-29T11:32:31.744Z,1022.91
2019-04-29T11:33:31.657Z,1022.86
2019-04-29T11:34:33.374Z,1022.70
2019-04-29T11:35:31.516Z,1022.68
2019-04-29T11:36:34.967Z,1022.72
2019-04-29T11:37:31.409Z,1022.75
2019-04-29T11:38:33.330Z,1022.56
2019-04-29T11:39:31.239Z,1022.79
2019-04-29T11:40:43.188Z,1022.58
2019-04-29T11:41:31.094Z,1022.15
2019-04-29T11:42:31.958Z,1021.90
2019-04-29T11:43:31.149Z,1021.82
2019-04-29T11:44:31.943Z,1021.71
2019-04-29T11:45:33.890Z,1021.60
2019-04-29T11:46:30.734Z,1021.97
2019-04-29T11:47:30.734Z,1021.66
2019-04-29T11:48:30.595Z,1021.59
2019-04-29T11:49:30.535Z,1022.01
2019-04-29T11:50:30.444Z,1021.78
2019-04-29T11:51:34.173Z,1022.32
2019-04-29T11:52:30.293Z,1021.98
2019-04-29T11:53:30.260Z,1022.15
2019-04-29T11:54:30.146Z,1022.21
2019-04-29T11:55:30.170Z,1021.75
2019-04-29T11:56:29.994Z,1021.46
2019-04-29T11:57:40.387Z,1021.39
2019-04-29T11:58:29.858Z,1021.34
2019-04-29T11:59:29.889Z,1021.34
2019-04-29T12:00:29.874Z,1021.35
2019-04-29T12:01:38.501Z,1021.39
2019-04-29T12:02:44.595Z,1021.40
2019-04-29T12:03:29.494Z,1021.37
2019-04-29T12:04:33.498Z,1021.46